sensor_id;sensor_type;location;lat;lon;timestamp;pressure;altitude;pressure_sealevel;temperature;humidity
76827;BME280;65788;52.284;20.890;2023-06-01T00:00:12;100516.52;;;24.21;30.27
76827;BME280;65788;52.284;20.890;2023-06-01T00:03:00;100513.39;;;24.22;30.14
76827;BME280;65788;52.284;20.890;2023-06-01T00:05:28;100512.46;;;24.20;29.99
76827;BME280;65788;52.284;20.890;2023-06-01T00:07:57;100512.70;;;24.17;30.00
76827;BME280;65788;52.284;20.890;2023-06-01T00:10:23;100508.96;;;24.12;29.94
76827;BME280;65788;52.284;20.890;2023-06-01T00:12:50;100506.18;;;24.09;29.90
76827;BME280;65788;52.284;20.890;2023-06-01T00:15:17;100505.05;;;24.05;29.81
76827;BME280;65788;52.284;20.890;2023-06-01T00:17:46;100502.54;;;24.03;29.84
76827;BME280;65788;52.284;20.890;2023-06-01T00:20:18;100497.55;;;23.97;30.05
76827;BME280;65788;52.284;20.890;2023-06-01T00:22:45;100497.30;;;23.94;29.94
76827;BME280;65788;52.284;20.890;2023-06-01T00:25:13;100491.33;;;23.92;29.76
76827;BME280;65788;52.284;20.890;2023-06-01T00:27:39;100492.39;;;23.92;29.99
76827;BME280;65788;52.284;20.890;2023-06-01T00:30:07;100491.23;;;23.91;30.07
76827;BME280;65788;52.284;20.890;2023-06-01T00:32:34;100487.99;;;23.88;30.35
76827;BME280;65788;52.284;20.890;2023-06-01T00:35:01;100485.73;;;23.79;30.34
76827;BME280;65788;52.284;20.890;2023-06-01T00:37:28;100483.24;;;23.71;30.72
76827;BME280;65788;52.284;20.890;2023-06-01T00:39:55;100481.20;;;23.63;30.93
76827;BME280;65788;52.284;20.890;2023-06-01T00:42:22;100479.30;;;23.57;31.13
76827;BME280;65788;52.284;20.890;2023-06-01T00:44:52;100482.92;;;23.54;31.14
76827;BME280;65788;52.284;20.890;2023-06-01T00:47:20;100481.19;;;23.55;31.17
76827;BME280;65788;52.284;20.890;2023-06-01T00:49:47;100477.08;;;23.53;31.25
76827;BME280;65788;52.284;20.890;2023-06-01T00:52:17;100471.73;;;23.51;31.25
76827;BME280;65788;52.284;20.890;2023-06-01T00:54:45;100475.90;;;23.50;31.29
76827;BME280;65788;52.284;20.890;2023-06-01T00:57:12;100473.38;;;23.47;31.30
76827;BME280;65788;52.284;20.890;2023-06-01T00:59:39;100474.05;;;23.44;31.38
76827;BME280;65788;52.284;20.890;2023-06-01T01:02:06;100475.02;;;23.41;31.41
76827;BME280;65788;52.284;20.890;2023-06-01T01:04:34;100471.05;;;23.39;31.45
76827;BME280;65788;52.284;20.890;2023-06-01T01:07:24;100470.63;;;23.35;31.47
76827;BME280;65788;52.284;20.890;2023-06-01T01:10:08;100467.63;;;23.33;31.52
76827;BME280;65788;52.284;20.890;2023-06-01T01:15:32;100467.37;;;23.25;31.71
76827;BME280;65788;52.284;20.890;2023-06-01T01:18:10;100468.29;;;23.24;31.90
76827;BME280;65788;52.284;20.890;2023-06-01T01:20:41;100469.42;;;23.20;31.75
76827;BME280;65788;52.284;20.890;2023-06-01T01:23:18;100465.96;;;23.20;31.87
76827;BME280;65788;52.284;20.890;2023-06-01T01:31:16;100454.29;;;23.13;31.73
76827;BME280;65788;52.284;20.890;2023-06-01T01:33:46;100449.00;;;23.13;31.70
76827;BME280;65788;52.284;20.890;2023-06-01T01:36:15;100447.45;;;23.07;31.75
76827;BME280;65788;52.284;20.890;2023-06-01T01:38:42;100445.25;;;23.02;31.93
76827;BME280;65788;52.284;20.890;2023-06-01T01:41:09;100443.09;;;23.01;31.82
76827;BME280;65788;52.284;20.890;2023-06-01T01:43:37;100440.69;;;23.00;31.89
76827;BME280;65788;52.284;20.890;2023-06-01T01:46:25;100437.61;;;23.00;31.81
76827;BME280;65788;52.284;20.890;2023-06-01T01:49:06;100438.55;;;22.98;31.80
76827;BME280;65788;52.284;20.890;2023-06-01T01:51:54;100432.45;;;22.96;31.92
76827;BME280;65788;52.284;20.890;2023-06-01T01:54:24;100433.83;;;22.96;31.85
76827;BME280;65788;52.284;20.890;2023-06-01T01:56:51;100437.79;;;22.93;31.90
76827;BME280;65788;52.284;20.890;2023-06-01T01:59:20;100431.30;;;22.92;31.91
76827;BME280;65788;52.284;20.890;2023-06-01T02:01:47;100432.57;;;22.92;31.88
76827;BME280;65788;52.284;20.890;2023-06-01T02:04:14;100430.45;;;22.89;31.87
76827;BME280;65788;52.284;20.890;2023-06-01T02:06:41;100435.63;;;22.88;31.91
76827;BME280;65788;52.284;20.890;2023-06-01T02:09:08;100433.46;;;22.86;31.96
76827;BME280;65788;52.284;20.890;2023-06-01T02:11:36;100433.42;;;22.90;31.88
76827;BME280;65788;52.284;20.890;2023-06-01T02:14:03;100426.82;;;22.86;31.95
76827;BME280;65788;52.284;20.890;2023-06-01T02:16:32;100422.25;;;22.84;31.94
76827;BME280;65788;52.284;20.890;2023-06-01T02:18:58;100422.33;;;22.83;32.02
76827;BME280;65788;52.284;20.890;2023-06-01T02:21:26;100424.89;;;22.83;31.90
76827;BME280;65788;52.284;20.890;2023-06-01T02:23:53;100420.96;;;22.82;31.90
76827;BME280;65788;52.284;20.890;2023-06-01T02:26:20;100423.59;;;22.82;31.93
76827;BME280;65788;52.284;20.890;2023-06-01T02:28:48;100420.75;;;22.80;31.96
76827;BME280;65788;52.284;20.890;2023-06-01T02:31:15;100424.73;;;22.78;31.92
76827;BME280;65788;52.284;20.890;2023-06-01T02:33:42;100420.95;;;22.76;31.99
76827;BME280;65788;52.284;20.890;2023-06-01T02:36:09;100422.29;;;22.76;31.97
76827;BME280;65788;52.284;20.890;2023-06-01T02:38:37;100416.17;;;22.77;31.89
76827;BME280;65788;52.284;20.890;2023-06-01T02:41:04;100417.92;;;22.75;31.83
76827;BME280;65788;52.284;20.890;2023-06-01T02:43:34;100412.11;;;22.73;31.92
76827;BME280;65788;52.284;20.890;2023-06-01T02:46:01;100411.52;;;22.71;31.97
76827;BME280;65788;52.284;20.890;2023-06-01T02:48:29;100410.40;;;22.71;31.99
76827;BME280;65788;52.284;20.890;2023-06-01T02:50:57;100408.48;;;22.72;31.86
76827;BME280;65788;52.284;20.890;2023-06-01T02:53:24;100405.55;;;22.71;31.90
76827;BME280;65788;52.284;20.890;2023-06-01T02:55:54;100400.10;;;22.69;31.91
76827;BME280;65788;52.284;20.890;2023-06-01T02:58:21;100403.04;;;22.68;31.93
76827;BME280;65788;52.284;20.890;2023-06-01T03:00:48;100404.42;;;22.70;31.73
76827;BME280;65788;52.284;20.890;2023-06-01T03:03:15;100406.11;;;22.66;31.79
76827;BME280;65788;52.284;20.890;2023-06-01T03:05:42;100403.00;;;22.66;32.07
76827;BME280;65788;52.284;20.890;2023-06-01T03:08:12;100404.23;;;22.64;31.87
76827;BME280;65788;52.284;20.890;2023-06-01T03:10:39;100408.38;;;22.65;31.78
76827;BME280;65788;52.284;20.890;2023-06-01T03:13:07;100404.90;;;22.63;31.82
76827;BME280;65788;52.284;20.890;2023-06-01T03:15:34;100405.69;;;22.62;31.73
76827;BME280;65788;52.284;20.890;2023-06-01T03:18:04;100403.92;;;22.60;31.73
76827;BME280;65788;52.284;20.890;2023-06-01T03:20:32;100404.29;;;22.62;31.74
76827;BME280;65788;52.284;20.890;2023-06-01T03:22:59;100398.52;;;22.63;31.67
76827;BME280;65788;52.284;20.890;2023-06-01T03:25:27;100400.83;;;22.61;31.67
76827;BME280;65788;52.284;20.890;2023-06-01T03:27:54;100394.20;;;22.60;31.64
76827;BME280;65788;52.284;20.890;2023-06-01T03:30:21;100394.85;;;22.59;31.60
76827;BME280;65788;52.284;20.890;2023-06-01T03:32:49;100398.63;;;22.59;31.58
76827;BME280;65788;52.284;20.890;2023-06-01T03:35:16;100396.95;;;22.57;31.57
76827;BME280;65788;52.284;20.890;2023-06-01T03:37:45;100393.02;;;22.56;31.58
76827;BME280;65788;52.284;20.890;2023-06-01T03:40:13;100389.99;;;22.55;31.52
76827;BME280;65788;52.284;20.890;2023-06-01T03:42:45;100389.33;;;22.56;31.65
76827;BME280;65788;52.284;20.890;2023-06-01T03:45:13;100392.29;;;22.56;31.52
76827;BME280;65788;52.284;20.890;2023-06-01T03:47:41;100389.19;;;22.55;31.35
76827;BME280;65788;52.284;20.890;2023-06-01T03:50:09;100390.80;;;22.55;31.28
76827;BME280;65788;52.284;20.890;2023-06-01T03:52:37;100390.98;;;22.53;31.21
76827;BME280;65788;52.284;20.890;2023-06-01T03:55:05;100392.13;;;22.54;31.17
76827;BME280;65788;52.284;20.890;2023-06-01T03:57:35;100388.81;;;22.54;31.12
76827;BME280;65788;52.284;20.890;2023-06-01T04:00:05;100390.23;;;22.54;31.13
76827;BME280;65788;52.284;20.890;2023-06-01T04:02:47;100390.21;;;22.49;31.25
76827;BME280;65788;52.284;20.890;2023-06-01T04:05:16;100386.33;;;22.52;31.12
76827;BME280;65788;52.284;20.890;2023-06-01T04:07:48;100384.63;;;22.49;31.08
76827;BME280;65788;52.284;20.890;2023-06-01T04:10:16;100386.26;;;22.49;31.07
76827;BME280;65788;52.284;20.890;2023-06-01T04:12:44;100389.20;;;22.49;31.06
76827;BME280;65788;52.284;20.890;2023-06-01T04:15:12;100387.80;;;22.46;31.04
76827;BME280;65788;52.284;20.890;2023-06-01T04:17:41;100387.39;;;22.45;31.14
76827;BME280;65788;52.284;20.890;2023-06-01T04:20:12;100383.54;;;22.45;31.22
76827;BME280;65788;52.284;20.890;2023-06-01T04:22:40;100378.49;;;22.46;31.03
76827;BME280;65788;52.284;20.890;2023-06-01T04:25:10;100376.95;;;22.47;31.09
76827;BME280;65788;52.284;20.890;2023-06-01T04:27:45;100373.77;;;22.44;31.13
76827;BME280;65788;52.284;20.890;2023-06-01T04:30:13;100369.17;;;22.45;31.22
76827;BME280;65788;52.284;20.890;2023-06-01T04:32:42;100369.92;;;22.46;31.03
76827;BME280;65788;52.284;20.890;2023-06-01T04:35:10;100363.59;;;22.45;31.03
76827;BME280;65788;52.284;20.890;2023-06-01T04:37:38;100370.57;;;22.46;31.09
76827;BME280;65788;52.284;20.890;2023-06-01T04:40:10;100370.75;;;22.43;31.24
76827;BME280;65788;52.284;20.890;2023-06-01T04:42:39;100367.81;;;22.42;31.41
76827;BME280;65788;52.284;20.890;2023-06-01T04:45:09;100365.48;;;22.43;31.41
76827;BME280;65788;52.284;20.890;2023-06-01T04:47:36;100363.20;;;22.43;31.42
76827;BME280;65788;52.284;20.890;2023-06-01T04:50:07;100367.80;;;22.42;31.48
76827;BME280;65788;52.284;20.890;2023-06-01T04:52:41;100364.33;;;22.40;31.49
76827;BME280;65788;52.284;20.890;2023-06-01T04:55:09;100365.16;;;22.41;31.68
76827;BME280;65788;52.284;20.890;2023-06-01T04:57:36;100366.77;;;22.40;31.61
76827;BME280;65788;52.284;20.890;2023-06-01T05:00:04;100368.39;;;22.43;31.67
76827;BME280;65788;52.284;20.890;2023-06-01T05:02:36;100359.78;;;22.42;31.73
76827;BME280;65788;52.284;20.890;2023-06-01T05:05:07;100356.65;;;22.42;31.81
76827;BME280;65788;52.284;20.890;2023-06-01T05:07:38;100352.27;;;22.43;31.91
76827;BME280;65788;52.284;20.890;2023-06-01T05:10:10;100347.52;;;22.42;32.09
76827;BME280;65788;52.284;20.890;2023-06-01T05:12:37;100343.08;;;22.43;32.20
76827;BME280;65788;52.284;20.890;2023-06-01T05:15:06;100343.77;;;22.44;32.20
76827;BME280;65788;52.284;20.890;2023-06-01T05:17:34;100340.30;;;22.43;32.24
76827;BME280;65788;52.284;20.890;2023-06-01T05:20:01;100337.35;;;22.44;32.26
76827;BME280;65788;52.284;20.890;2023-06-01T05:22:27;100336.09;;;22.45;32.35
76827;BME280;65788;52.284;20.890;2023-06-01T05:24:57;100335.03;;;22.45;32.35
76827;BME280;65788;52.284;20.890;2023-06-01T05:27:24;100333.09;;;22.45;32.31
76827;BME280;65788;52.284;20.890;2023-06-01T05:29:50;100334.11;;;22.46;32.28
76827;BME280;65788;52.284;20.890;2023-06-01T05:32:18;100333.96;;;22.47;32.35
76827;BME280;65788;52.284;20.890;2023-06-01T05:34:45;100332.89;;;22.47;32.25
76827;BME280;65788;52.284;20.890;2023-06-01T05:37:12;100333.48;;;22.48;32.25
76827;BME280;65788;52.284;20.890;2023-06-01T05:39:39;100334.17;;;22.49;32.16
76827;BME280;65788;52.284;20.890;2023-06-01T05:42:07;100336.73;;;22.49;32.47
76827;BME280;65788;52.284;20.890;2023-06-01T05:44:34;100334.92;;;22.48;32.77
76827;BME280;65788;52.284;20.890;2023-06-01T05:47:01;100336.59;;;22.50;32.79
76827;BME280;65788;52.284;20.890;2023-06-01T05:49:30;100332.27;;;22.49;32.90
76827;BME280;65788;52.284;20.890;2023-06-01T05:51:58;100329.42;;;22.48;33.06
76827;BME280;65788;52.284;20.890;2023-06-01T05:54:25;100333.10;;;22.49;32.80
76827;BME280;65788;52.284;20.890;2023-06-01T05:56:52;100332.88;;;22.51;33.17
76827;BME280;65788;52.284;20.890;2023-06-01T05:59:19;100331.25;;;22.51;32.91
76827;BME280;65788;52.284;20.890;2023-06-01T06:01:46;100333.14;;;22.53;33.32
76827;BME280;65788;52.284;20.890;2023-06-01T06:04:14;100333.69;;;22.52;33.31
76827;BME280;65788;52.284;20.890;2023-06-01T06:06:41;100332.61;;;22.54;33.35
76827;BME280;65788;52.284;20.890;2023-06-01T06:09:08;100331.08;;;22.55;33.30
76827;BME280;65788;52.284;20.890;2023-06-01T06:11:36;100327.23;;;22.55;33.37
76827;BME280;65788;52.284;20.890;2023-06-01T06:14:04;100331.40;;;22.55;33.44
76827;BME280;65788;52.284;20.890;2023-06-01T06:16:31;100328.48;;;22.56;33.31
76827;BME280;65788;52.284;20.890;2023-06-01T06:18:58;100326.92;;;22.57;33.34
76827;BME280;65788;52.284;20.890;2023-06-01T06:21:24;100327.44;;;22.57;33.33
76827;BME280;65788;52.284;20.890;2023-06-01T06:23:51;100324.21;;;22.58;33.31
76827;BME280;65788;52.284;20.890;2023-06-01T06:26:19;100321.27;;;22.59;33.31
76827;BME280;65788;52.284;20.890;2023-06-01T06:28:47;100321.66;;;22.59;33.23
76827;BME280;65788;52.284;20.890;2023-06-01T06:31:14;100322.05;;;22.58;33.33
76827;BME280;65788;52.284;20.890;2023-06-01T06:33:40;100315.05;;;22.59;33.48
76827;BME280;65788;52.284;20.890;2023-06-01T06:36:07;100315.70;;;22.61;33.66
76827;BME280;65788;52.284;20.890;2023-06-01T06:38:34;100317.23;;;22.63;33.83
76827;BME280;65788;52.284;20.890;2023-06-01T06:41:01;100319.52;;;22.63;33.79
76827;BME280;65788;52.284;20.890;2023-06-01T06:43:28;100317.02;;;22.63;33.80
76827;BME280;65788;52.284;20.890;2023-06-01T06:45:54;100317.48;;;22.64;33.73
76827;BME280;65788;52.284;20.890;2023-06-01T06:48:21;100319.80;;;22.66;33.92
76827;BME280;65788;52.284;20.890;2023-06-01T06:50:48;100319.15;;;22.66;34.15
76827;BME280;65788;52.284;20.890;2023-06-01T06:53:14;100315.70;;;22.67;34.23
76827;BME280;65788;52.284;20.890;2023-06-01T06:55:41;100315.73;;;22.68;34.40
76827;BME280;65788;52.284;20.890;2023-06-01T06:58:09;100312.61;;;22.68;34.27
76827;BME280;65788;52.284;20.890;2023-06-01T07:00:37;100310.17;;;22.69;34.39
76827;BME280;65788;52.284;20.890;2023-06-01T07:03:04;100307.38;;;22.69;34.26
76827;BME280;65788;52.284;20.890;2023-06-01T07:05:32;100309.59;;;22.70;34.16
76827;BME280;65788;52.284;20.890;2023-06-01T07:07:58;100303.36;;;22.71;33.99
76827;BME280;65788;52.284;20.890;2023-06-01T07:10:25;100297.46;;;22.72;34.05
76827;BME280;65788;52.284;20.890;2023-06-01T07:12:52;100292.13;;;22.73;33.95
76827;BME280;65788;52.284;20.890;2023-06-01T07:15:19;100293.48;;;22.73;33.93
76827;BME280;65788;52.284;20.890;2023-06-01T07:17:46;100297.11;;;22.77;33.88
76827;BME280;65788;52.284;20.890;2023-06-01T07:20:13;100295.20;;;22.77;33.83
76827;BME280;65788;52.284;20.890;2023-06-01T07:22:40;100294.16;;;22.77;33.80
76827;BME280;65788;52.284;20.890;2023-06-01T07:25:09;100296.72;;;22.78;33.94
76827;BME280;65788;52.284;20.890;2023-06-01T07:27:36;100290.44;;;22.78;33.86
76827;BME280;65788;52.284;20.890;2023-06-01T07:30:04;100287.91;;;22.78;33.82
76827;BME280;65788;52.284;20.890;2023-06-01T07:32:31;100282.83;;;22.81;33.86
76827;BME280;65788;52.284;20.890;2023-06-01T07:34:59;100281.02;;;22.81;33.85
76827;BME280;65788;52.284;20.890;2023-06-01T07:37:25;100282.00;;;22.83;33.73
76827;BME280;65788;52.284;20.890;2023-06-01T07:39:54;100276.02;;;22.85;33.61
76827;BME280;65788;52.284;20.890;2023-06-01T07:42:21;100278.43;;;22.86;33.62
76827;BME280;65788;52.284;20.890;2023-06-01T07:44:48;100279.80;;;22.85;33.53
76827;BME280;65788;52.284;20.890;2023-06-01T07:47:14;100276.64;;;22.85;33.54
76827;BME280;65788;52.284;20.890;2023-06-01T07:49:42;100274.56;;;22.86;33.55
76827;BME280;65788;52.284;20.890;2023-06-01T07:52:09;100270.90;;;22.89;33.35
76827;BME280;65788;52.284;20.890;2023-06-01T07:54:36;100271.14;;;22.90;33.29
76827;BME280;65788;52.284;20.890;2023-06-01T07:57:04;100271.83;;;22.87;33.26
76827;BME280;65788;52.284;20.890;2023-06-01T07:59:31;100268.17;;;22.87;33.27
76827;BME280;65788;52.284;20.890;2023-06-01T08:01:58;100267.34;;;22.90;33.61
76827;BME280;65788;52.284;20.890;2023-06-01T08:04:27;100263.44;;;23.05;33.49
76827;BME280;65788;52.284;20.890;2023-06-01T08:06:59;100263.67;;;23.12;33.28
76827;BME280;65788;52.284;20.890;2023-06-01T08:09:29;100262.13;;;23.14;33.10
76827;BME280;65788;52.284;20.890;2023-06-01T08:11:57;100258.61;;;23.17;32.27
76827;BME280;65788;52.284;20.890;2023-06-01T08:14:24;100256.09;;;23.20;32.63
76827;BME280;65788;52.284;20.890;2023-06-01T08:16:51;100256.24;;;23.24;32.29
76827;BME280;65788;52.284;20.890;2023-06-01T08:19:19;100252.45;;;23.25;31.83
76827;BME280;65788;52.284;20.890;2023-06-01T08:21:45;100251.27;;;23.27;32.03
76827;BME280;65788;52.284;20.890;2023-06-01T08:24:12;100248.14;;;23.34;31.77
76827;BME280;65788;52.284;20.890;2023-06-01T08:26:39;100246.39;;;23.37;31.71
76827;BME280;65788;52.284;20.890;2023-06-01T08:29:07;100249.13;;;23.30;30.83
76827;BME280;65788;52.284;20.890;2023-06-01T08:31:34;100242.00;;;23.28;30.95
76827;BME280;65788;52.284;20.890;2023-06-01T08:34:03;100241.50;;;23.31;31.11
76827;BME280;65788;52.284;20.890;2023-06-01T08:36:29;100236.98;;;23.33;30.80
76827;BME280;65788;52.284;20.890;2023-06-01T08:38:57;100240.45;;;23.35;30.95
76827;BME280;65788;52.284;20.890;2023-06-01T08:41:35;100239.55;;;23.38;30.99
76827;BME280;65788;52.284;20.890;2023-06-01T08:44:04;100234.36;;;23.38;30.49
76827;BME280;65788;52.284;20.890;2023-06-01T08:46:33;100232.71;;;23.39;30.50
76827;BME280;65788;52.284;20.890;2023-06-01T08:49:01;100227.71;;;23.42;30.79
76827;BME280;65788;52.284;20.890;2023-06-01T08:51:32;100225.88;;;23.46;30.75
76827;BME280;65788;52.284;20.890;2023-06-01T08:54:00;100221.80;;;23.46;30.63
76827;BME280;65788;52.284;20.890;2023-06-01T08:56:30;100217.44;;;23.49;30.70
76827;BME280;65788;52.284;20.890;2023-06-01T08:58:57;100212.50;;;23.47;30.59
76827;BME280;65788;52.284;20.890;2023-06-01T09:01:26;100206.35;;;23.47;30.77
76827;BME280;65788;52.284;20.890;2023-06-01T09:03:54;100206.88;;;23.49;30.88
76827;BME280;65788;52.284;20.890;2023-06-01T09:06:21;100206.22;;;23.53;30.93
76827;BME280;65788;52.284;20.890;2023-06-01T09:08:48;100204.59;;;23.52;30.79
76827;BME280;65788;52.284;20.890;2023-06-01T09:11:16;100201.98;;;23.53;30.80
76827;BME280;65788;52.284;20.890;2023-06-01T09:13:43;100196.33;;;23.53;30.66
76827;BME280;65788;52.284;20.890;2023-06-01T09:16:10;100199.98;;;23.54;30.51
76827;BME280;65788;52.284;20.890;2023-06-01T09:18:53;100196.62;;;23.57;31.19
76827;BME280;65788;52.284;20.890;2023-06-01T09:21:21;100195.34;;;23.61;30.80
76827;BME280;65788;52.284;20.890;2023-06-01T09:23:48;100188.37;;;23.73;31.36
76827;BME280;65788;52.284;20.890;2023-06-01T09:26:17;100192.75;;;23.75;30.62
76827;BME280;65788;52.284;20.890;2023-06-01T09:28:57;100190.95;;;23.75;30.83
76827;BME280;65788;52.284;20.890;2023-06-01T09:31:41;100181.42;;;23.71;31.00
76827;BME280;65788;52.284;20.890;2023-06-01T09:34:09;100180.61;;;23.66;30.65
76827;BME280;65788;52.284;20.890;2023-06-01T09:36:38;100181.52;;;23.67;31.04
76827;BME280;65788;52.284;20.890;2023-06-01T09:39:13;100185.48;;;23.71;31.50
76827;BME280;65788;52.284;20.890;2023-06-01T09:44:11;100178.58;;;23.72;31.46
76827;BME280;65788;52.284;20.890;2023-06-01T09:46:49;100177.55;;;23.70;31.17
76827;BME280;65788;52.284;20.890;2023-06-01T09:49:36;100170.73;;;23.70;31.38
76827;BME280;65788;52.284;20.890;2023-06-01T09:54:36;100171.98;;;23.68;31.16
76827;BME280;65788;52.284;20.890;2023-06-01T09:57:05;100171.54;;;23.68;31.43
76827;BME280;65788;52.284;20.890;2023-06-01T09:59:44;100171.29;;;23.70;31.36
76827;BME280;65788;52.284;20.890;2023-06-01T10:07:18;100163.48;;;23.71;31.70
76827;BME280;65788;52.284;20.890;2023-06-01T10:09:54;100162.52;;;23.74;31.98
76827;BME280;65788;52.284;20.890;2023-06-01T10:12:21;100163.52;;;23.74;31.38
76827;BME280;65788;52.284;20.890;2023-06-01T10:14:50;100162.58;;;23.74;31.56
76827;BME280;65788;52.284;20.890;2023-06-01T10:17:18;100155.86;;;23.74;31.47
76827;BME280;65788;52.284;20.890;2023-06-01T10:19:45;100156.31;;;23.77;31.69
76827;BME280;65788;52.284;20.890;2023-06-01T10:22:13;100152.58;;;23.80;31.55
76827;BME280;65788;52.284;20.890;2023-06-01T10:24:40;100154.58;;;23.79;31.40
76827;BME280;65788;52.284;20.890;2023-06-01T10:27:26;100150.34;;;23.85;31.78
76827;BME280;65788;52.284;20.890;2023-06-01T10:29:53;100146.02;;;23.89;31.14
76827;BME280;65788;52.284;20.890;2023-06-01T10:32:48;100153.60;;;23.84;31.30
76827;BME280;65788;52.284;20.890;2023-06-01T10:40:34;100145.68;;;23.96;31.26
76827;BME280;65788;52.284;20.890;2023-06-01T10:43:01;100142.92;;;23.99;31.58
76827;BME280;65788;52.284;20.890;2023-06-01T10:48:09;100131.99;;;24.01;31.58
76827;BME280;65788;52.284;20.890;2023-06-01T10:50:42;100130.66;;;24.02;31.76
76827;BME280;65788;52.284;20.890;2023-06-01T10:53:28;100133.83;;;24.00;31.63
76827;BME280;65788;52.284;20.890;2023-06-01T10:58:45;100122.69;;;24.08;32.41
76827;BME280;65788;52.284;20.890;2023-06-01T11:01:18;100117.80;;;24.06;31.58
76827;BME280;65788;52.284;20.890;2023-06-01T11:03:48;100120.94;;;24.02;31.39
76827;BME280;65788;52.284;20.890;2023-06-01T11:06:25;100116.80;;;23.97;31.38
76827;BME280;65788;52.284;20.890;2023-06-01T11:08:57;100109.84;;;24.00;31.22
76827;BME280;65788;52.284;20.890;2023-06-01T11:14:23;100107.17;;;24.10;31.15
76827;BME280;65788;52.284;20.890;2023-06-01T11:16:54;100100.88;;;24.02;31.26
76827;BME280;65788;52.284;20.890;2023-06-01T11:19:23;100099.31;;;24.07;31.20
76827;BME280;65788;52.284;20.890;2023-06-01T11:21:59;100096.08;;;24.17;31.52
76827;BME280;65788;52.284;20.890;2023-06-01T11:24:33;100092.13;;;24.30;31.69
76827;BME280;65788;52.284;20.890;2023-06-01T11:27:08;100093.29;;;24.33;32.65
76827;BME280;65788;52.284;20.890;2023-06-01T11:29:36;100095.96;;;24.38;32.24
76827;BME280;65788;52.284;20.890;2023-06-01T11:32:05;100092.64;;;24.19;31.61
76827;BME280;65788;52.284;20.890;2023-06-01T11:34:33;100088.58;;;24.23;31.60
76827;BME280;65788;52.284;20.890;2023-06-01T11:37:19;100089.41;;;24.17;31.52
76827;BME280;65788;52.284;20.890;2023-06-01T11:39:46;100083.48;;;24.17;31.68
76827;BME280;65788;52.284;20.890;2023-06-01T11:42:16;100082.19;;;24.21;31.85
76827;BME280;65788;52.284;20.890;2023-06-01T11:44:45;100077.11;;;24.20;31.34
76827;BME280;65788;52.284;20.890;2023-06-01T11:47:15;100079.23;;;24.22;31.10
76827;BME280;65788;52.284;20.890;2023-06-01T11:52:11;100066.88;;;24.21;30.77
76827;BME280;65788;52.284;20.890;2023-06-01T11:54:38;100065.63;;;24.30;30.73
76827;BME280;65788;52.284;20.890;2023-06-01T11:57:06;100066.50;;;24.23;30.62
76827;BME280;65788;52.284;20.890;2023-06-01T11:59:38;100064.66;;;24.23;30.72
76827;BME280;65788;52.284;20.890;2023-06-01T12:02:25;100056.77;;;24.28;31.00
76827;BME280;65788;52.284;20.890;2023-06-01T12:04:57;100054.70;;;24.28;30.84
76827;BME280;65788;52.284;20.890;2023-06-01T12:07:26;100051.11;;;24.32;31.02
76827;BME280;65788;52.284;20.890;2023-06-01T12:09:54;100050.61;;;24.27;31.07
76827;BME280;65788;52.284;20.890;2023-06-01T12:12:23;100042.64;;;24.29;31.27
76827;BME280;65788;52.284;20.890;2023-06-01T12:14:51;100043.81;;;24.29;31.09
76827;BME280;65788;52.284;20.890;2023-06-01T12:17:18;100043.67;;;24.32;31.15
76827;BME280;65788;52.284;20.890;2023-06-01T12:19:49;100041.58;;;24.35;31.31
76827;BME280;65788;52.284;20.890;2023-06-01T12:22:17;100040.93;;;24.38;31.09
76827;BME280;65788;52.284;20.890;2023-06-01T12:24:44;100042.67;;;24.39;31.13
76827;BME280;65788;52.284;20.890;2023-06-01T12:27:16;100037.09;;;24.39;31.16
76827;BME280;65788;52.284;20.890;2023-06-01T12:29:45;100027.90;;;24.38;31.14
76827;BME280;65788;52.284;20.890;2023-06-01T12:32:14;100022.20;;;24.39;31.12
76827;BME280;65788;52.284;20.890;2023-06-01T12:35:02;100025.16;;;24.38;30.96
76827;BME280;65788;52.284;20.890;2023-06-01T12:37:29;100025.39;;;24.45;30.99
76827;BME280;65788;52.284;20.890;2023-06-01T12:39:56;100024.52;;;24.43;30.89
76827;BME280;65788;52.284;20.890;2023-06-01T12:45:03;100016.05;;;24.38;30.92
76827;BME280;65788;52.284;20.890;2023-06-01T12:47:41;100013.36;;;24.45;31.16
76827;BME280;65788;52.284;20.890;2023-06-01T12:50:14;100012.55;;;24.47;30.96
76827;BME280;65788;52.284;20.890;2023-06-01T12:52:42;100008.23;;;24.53;31.43
76827;BME280;65788;52.284;20.890;2023-06-01T12:55:12;100004.73;;;24.56;31.20
76827;BME280;65788;52.284;20.890;2023-06-01T12:57:42;100004.96;;;24.58;31.36
76827;BME280;65788;52.284;20.890;2023-06-01T13:00:10;100003.64;;;24.59;31.56
76827;BME280;65788;52.284;20.890;2023-06-01T13:02:38;100003.79;;;24.62;31.69
76827;BME280;65788;52.284;20.890;2023-06-01T13:05:07;99991.52;;;24.60;31.70
76827;BME280;65788;52.284;20.890;2023-06-01T13:07:35;99994.69;;;24.60;31.53
76827;BME280;65788;52.284;20.890;2023-06-01T13:10:03;99990.30;;;24.58;31.37
76827;BME280;65788;52.284;20.890;2023-06-01T13:12:30;99988.17;;;24.56;31.26
76827;BME280;65788;52.284;20.890;2023-06-01T13:14:58;99987.80;;;24.53;31.20
76827;BME280;65788;52.284;20.890;2023-06-01T13:17:24;99991.44;;;24.53;31.35
76827;BME280;65788;52.284;20.890;2023-06-01T13:19:53;99991.65;;;24.52;31.21
76827;BME280;65788;52.284;20.890;2023-06-01T13:22:20;99984.73;;;24.54;31.31
76827;BME280;65788;52.284;20.890;2023-06-01T13:24:48;99979.81;;;24.53;31.33
76827;BME280;65788;52.284;20.890;2023-06-01T13:27:15;99973.05;;;24.55;31.31